Time;durP1;ratioP1;P1;durP2;ratioP2;P2;SDS_P1;SDS_P2;PMS_P1;PMS_P2;Temp;Humidity;BMP_temperature;BMP_pressure;BME280_temperature;BME280_humidity;BME280_pressure;Samples;Min_cycle;Max_cycle;Signal;HPM_P1;HPM_P2
2023/06/04 00:00:51;;;;;;;9.05;5.60;;;;;;;;;;5051327;28;20104;-69
2023/06/04 00:03:36;;;;;;;9.05;5.10;;;;;;;;;;5037915;28;20430;-68
2023/06/04 00:06:22;;;;;;;13.55;5.75;;;;;;;;;;5050815;28;20055;-71
2023/06/04 00:09:07;;;;;;;9.93;5.65;;;;;;;;;;5027662;28;20087;-69
2023/06/04 00:11:52;;;;;;;11.77;6.40;;;;;;;;;;5055773;28;20055;-71
2023/06/04 00:14:38;;;;;;;14.88;6.40;;;;;;;;;;5051075;28;20037;-70
2023/06/04 00:17:23;;;;;;;13.73;6.72;;;;;;;;;;5050682;28;20414;-72
2023/06/04 00:20:09;;;;;;;9.60;5.47;;;;;;;;;;5024725;28;20045;-72
2023/06/04 00:22:54;;;;;;;9.55;6.30;;;;;;;;;;5037231;28;20137;-70
2023/06/04 00:25:39;;;;;;;10.13;6.63;;;;;;;;;;5050473;28;20040;-70
2023/06/04 00:28:25;;;;;;;9.00;5.82;;;;;;;;;;5051014;28;20229;-74
2023/06/04 00:31:12;;;;;;;9.88;6.00;;;;;;;;;;5044164;28;20131;-72
2023/06/04 00:33:57;;;;;;;9.50;5.93;;;;;;;;;;5036573;28;20044;-70
2023/06/04 00:36:42;;;;;;;9.50;5.28;;;;;;;;;;5039435;28;20045;-73
2023/06/04 00:39:29;;;;;;;13.55;5.75;;;;;;;;;;5047573;28;20036;-70
2023/06/04 00:42:14;;;;;;;8.82;5.40;;;;;;;;;;5034231;28;20052;-69
2023/06/04 00:44:59;;;;;;;11.95;5.57;;;;;;;;;;5034245;28;20045;-70
2023/06/04 00:47:45;;;;;;;9.45;5.72;;;;;;;;;;5038374;28;20732;-72
2023/06/04 00:50:30;;;;;;;10.93;5.72;;;;;;;;;;5050421;28;20041;-69
2023/06/04 00:53:15;;;;;;;9.27;5.75;;;;;;;;;;5049891;28;20064;-70
2023/06/04 00:56:00;;;;;;;10.93;5.82;;;;;;;;;;5050369;28;20064;-70
2023/06/04 00:58:47;;;;;;;10.98;6.00;;;;;;;;;;5033277;28;20032;-70
2023/06/04 01:01:35;;;;;;;8.38;5.32;;;;;;;;;;5039549;28;20037;-68
2023/06/04 01:04:25;;;;;;;9.38;6.00;;;;;;;;;;5048170;28;20040;-69
2023/06/04 01:07:13;;;;;;;9.75;6.13;;;;;;;;;;5050813;28;20044;-73
2023/06/04 01:09:58;;;;;;;10.23;5.53;;;;;;;;;;5037050;28;20511;-73
2023/06/04 01:12:43;;;;;;;9.63;5.85;;;;;;;;;;5041412;28;20544;-72
2023/06/04 01:15:28;;;;;;;8.75;5.53;;;;;;;;;;5049755;28;20029;-73
2023/06/04 01:18:27;;;;;;;7.97;5.20;;;;;;;;;;5035912;28;20037;-73
2023/06/04 01:21:18;;;;;;;10.80;5.75;;;;;;;;;;5015109;28;20093;-72
2023/06/04 01:24:04;;;;;;;10.52;5.78;;;;;;;;;;5041604;28;20043;-71
2023/06/04 01:26:51;;;;;;;8.70;5.43;;;;;;;;;;5049641;28;20029;-72
2023/06/04 01:29:36;;;;;;;10.55;6.05;;;;;;;;;;5022376;28;20024;-72
2023/06/04 01:32:22;;;;;;;9.10;6.07;;;;;;;;;;5030999;28;20032;-72
2023/06/04 01:35:11;;;;;;;8.65;5.18;;;;;;;;;;5040360;28;20037;-71
2023/06/04 01:37:56;;;;;;;12.38;5.70;;;;;;;;;;5049189;28;20047;-72
2023/06/04 01:40:42;;;;;;;9.20;5.32;;;;;;;;;;5049468;28;20037;-72
2023/06/04 01:43:28;;;;;;;8.77;5.88;;;;;;;;;;5035158;28;20487;-70
2023/06/04 01:46:13;;;;;;;10.90;5.82;;;;;;;;;;5024761;28;20029;-68
2023/06/04 01:48:58;;;;;;;11.25;5.78;;;;;;;;;;5049441;28;20068;-68
2023/06/04 01:51:44;;;;;;;9.15;5.43;;;;;;;;;;5049047;28;20036;-67
2023/06/04 01:54:32;;;;;;;9.05;4.72;;;;;;;;;;5034955;28;20435;-70
2023/06/04 01:57:19;;;;;;;11.75;5.53;;;;;;;;;;5037227;28;20551;-68
2023/06/04 02:00:07;;;;;;;8.85;5.18;;;;;;;;;;5016149;28;20030;-68
2023/06/04 02:02:55;;;;;;;8.77;5.78;;;;;;;;;;5046410;28;20400;-68
2023/06/04 02:05:40;;;;;;;10.10;5.90;;;;;;;;;;5048305;28;20045;-69
2023/06/04 02:08:27;;;;;;;8.25;5.43;;;;;;;;;;5035721;28;20543;-68
2023/06/04 02:11:12;;;;;;;13.38;5.82;;;;;;;;;;5026781;28;20032;-67
2023/06/04 02:13:57;;;;;;;10.80;5.38;;;;;;;;;;5048804;28;20040;-68
2023/06/04 02:16:43;;;;;;;10.65;6.25;;;;;;;;;;5042937;28;20381;-68
2023/06/04 02:19:28;;;;;;;9.57;5.60;;;;;;;;;;5033989;28;20041;-71
2023/06/04 02:22:14;;;;;;;10.30;6.18;;;;;;;;;;5037751;28;20040;-68
2023/06/04 02:24:59;;;;;;;11.02;5.18;;;;;;;;;;5062400;28;20445;-68
2023/06/04 02:27:45;;;;;;;9.18;5.70;;;;;;;;;;5048598;28;20106;-66
2023/06/04 02:30:30;;;;;;;10.60;6.07;;;;;;;;;;5044285;28;20030;-68
2023/06/04 02:33:15;;;;;;;8.65;5.43;;;;;;;;;;5036023;28;20120;-68
2023/06/04 02:36:01;;;;;;;11.07;5.18;;;;;;;;;;5039967;28;20044;-67
2023/06/04 02:38:47;;;;;;;9.45;5.57;;;;;;;;;;5048433;28;20310;-71
2023/06/04 02:41:32;;;;;;;10.35;5.00;;;;;;;;;;5047865;28;20091;-69
2023/06/04 02:44:17;;;;;;;8.80;5.20;;;;;;;;;;5033244;28;20037;-67
2023/06/04 02:47:03;;;;;;;10.88;6.07;;;;;;;;;;5027902;28;20041;-70
2023/06/04 02:49:48;;;;;;;7.93;5.22;;;;;;;;;;5046698;28;20031;-68
2023/06/04 02:52:36;;;;;;;10.32;5.55;;;;;;;;;;5046915;28;20041;-69
2023/06/04 02:55:22;;;;;;;8.25;5.35;;;;;;;;;;5044780;28;20060;-69
2023/06/04 02:58:08;;;;;;;9.77;5.10;;;;;;;;;;5020606;28;20063;-69
2023/06/04 03:00:54;;;;;;;11.63;4.65;;;;;;;;;;5048322;28;20341;-71
2023/06/04 03:03:39;;;;;;;10.75;5.40;;;;;;;;;;5035404;28;20511;-71
2023/06/04 03:06:25;;;;;;;9.40;5.72;;;;;;;;;;5047917;28;20071;-71
2023/06/04 03:09:11;;;;;;;10.00;5.45;;;;;;;;;;5034617;28;20045;-70
2023/06/04 03:11:57;;;;;;;9.13;5.30;;;;;;;;;;5038485;28;20032;-68
2023/06/04 03:14:43;;;;;;;9.02;5.20;;;;;;;;;;5061775;28;20033;-74
2023/06/04 03:17:28;;;;;;;8.48;5.13;;;;;;;;;;5047745;28;20069;-73
2023/06/04 03:20:14;;;;;;;8.43;4.70;;;;;;;;;;5034613;28;20036;-74
2023/06/04 03:22:59;;;;;;;10.77;5.40;;;;;;;;;;5037859;28;20041;-75
2023/06/04 03:25:44;;;;;;;8.27;5.10;;;;;;;;;;5051663;28;20040;-76
2023/06/04 03:28:30;;;;;;;9.35;5.45;;;;;;;;;;5049757;28;20047;-73
2023/06/04 03:31:15;;;;;;;9.18;5.60;;;;;;;;;;5048903;28;20276;-73
2023/06/04 03:34:00;;;;;;;8.85;5.35;;;;;;;;;;5038642;28;20029;-68
2023/06/04 03:36:45;;;;;;;7.53;4.75;;;;;;;;;;5042951;28;20115;-70
2023/06/04 03:39:31;;;;;;;8.38;5.07;;;;;;;;;;5051338;28;20871;-70
2023/06/04 03:42:16;;;;;;;7.65;4.80;;;;;;;;;;5051386;28;20033;-71
2023/06/04 03:45:01;;;;;;;10.68;5.22;;;;;;;;;;5038008;28;20037;-70
2023/06/04 03:47:46;;;;;;;10.85;5.90;;;;;;;;;;5026912;28;20029;-70
2023/06/04 03:50:32;;;;;;;9.70;5.13;;;;;;;;;;5051303;28;20380;-71
2023/06/04 03:53:17;;;;;;;9.90;4.97;;;;;;;;;;5044355;28;20045;-75
2023/06/04 03:56:03;;;;;;;9.88;4.93;;;;;;;;;;5037417;28;20045;-69
2023/06/04 03:58:48;;;;;;;9.10;4.45;;;;;;;;;;5034039;28;20041;-67
2023/06/04 04:01:34;;;;;;;9.30;5.70;;;;;;;;;;5030320;28;20068;-69
2023/06/04 04:04:19;;;;;;;11.70;5.00;;;;;;;;;;5051282;28;20040;-68
2023/06/04 04:07:04;;;;;;;9.68;5.43;;;;;;;;;;5050910;28;20494;-68
2023/06/04 04:09:50;;;;;;;11.32;5.30;;;;;;;;;;5036922;28;20040;-71
2023/06/04 04:12:35;;;;;;;9.77;5.43;;;;;;;;;;5040899;28;20041;-70
2023/06/04 04:15:21;;;;;;;8.32;4.57;;;;;;;;;;5051234;28;20045;-69
2023/06/04 04:18:08;;;;;;;9.30;4.45;;;;;;;;;;5051001;28;20286;-69
2023/06/04 04:20:53;;;;;;;7.47;4.30;;;;;;;;;;5051230;28;20177;-69
2023/06/04 04:23:42;;;;;;;8.43;4.47;;;;;;;;;;5039098;28;20112;-69
2023/06/04 04:26:27;;;;;;;6.57;3.90;;;;;;;;;;5037063;28;20109;-69
2023/06/04 04:29:13;;;;;;;7.70;4.30;;;;;;;;;;5051072;28;20029;-70
2023/06/04 04:32:00;;;;;;;6.68;4.00;;;;;;;;;;5064337;28;20033;-72
2023/06/04 04:34:53;;;;;;;7.20;4.38;;;;;;;;;;5037978;28;20067;-70
2023/06/04 04:37:39;;;;;;;8.23;4.15;;;;;;;;;;5029480;28;20052;-71
2023/06/04 04:40:25;;;;;;;9.05;4.82;;;;;;;;;;5050557;28;20041;-69
2023/06/04 04:43:10;;;;;;;10.35;5.80;;;;;;;;;;5049560;28;20036;-69
2023/06/04 04:45:55;;;;;;;10.35;5.05;;;;;;;;;;5036670;28;20071;-68
2023/06/04 04:48:42;;;;;;;11.10;5.20;;;;;;;;;;5031795;28;20112;-73
2023/06/04 04:51:27;;;;;;;13.45;5.38;;;;;;;;;;5047036;28;20072;-66
2023/06/04 04:54:12;;;;;;;9.25;5.00;;;;;;;;;;5050115;28;20422;-67
2023/06/04 04:56:57;;;;;;;7.90;4.20;;;;;;;;;;5022458;28;20498;-67
2023/06/04 04:59:43;;;;;;;7.05;4.13;;;;;;;;;;5017949;28;20350;-69
2023/06/04 05:02:28;;;;;;;9.68;5.03;;;;;;;;;;5050146;28;20033;-67
2023/06/04 05:05:13;;;;;;;11.20;5.13;;;;;;;;;;5039938;28;20083;-69
2023/06/04 05:07:58;;;;;;;7.03;4.55;;;;;;;;;;5035709;28;20025;-72
2023/06/04 05:10:44;;;;;;;8.13;4.88;;;;;;;;;;5036984;28;20032;-72
2023/06/04 05:13:29;;;;;;;8.35;4.70;;;;;;;;;;5040694;28;20415;-71
2023/06/04 05:16:14;;;;;;;9.50;4.82;;;;;;;;;;5037748;28;20122;-72
2023/06/04 05:19:00;;;;;;;9.13;5.22;;;;;;;;;;5036802;28;20040;-70
2023/06/04 05:21:45;;;;;;;5.68;3.72;;;;;;;;;;5035856;28;20376;-72
2023/06/04 05:24:32;;;;;;;6.53;3.80;;;;;;;;;;5038497;28;20375;-71
2023/06/04 05:27:17;;;;;;;6.60;3.88;;;;;;;;;;5049325;28;20041;-71
2023/06/04 05:30:03;;;;;;;9.18;4.47;;;;;;;;;;5047837;28;20033;-74
2023/06/04 05:32:50;;;;;;;6.75;4.07;;;;;;;;;;5048537;28;20033;-73
2023/06/04 05:35:35;;;;;;;6.55;3.92;;;;;;;;;;5037142;28;20067;-73
2023/06/04 05:38:20;;;;;;;7.88;3.65;;;;;;;;;;5041622;28;20116;-72
2023/06/04 05:41:06;;;;;;;8.18;3.50;;;;;;;;;;5049322;28;20044;-72
2023/06/04 05:43:51;;;;;;;5.53;2.75;;;;;;;;;;5048444;28;20029;-69
2023/06/04 05:46:36;;;;;;;4.85;3.03;;;;;;;;;;5025359;28;20040;-69
2023/06/04 05:49:24;;;;;;;5.72;3.42;;;;;;;;;;5038291;28;20037;-69
2023/06/04 05:52:09;;;;;;;6.75;2.85;;;;;;;;;;5028648;28;20465;-69
2023/06/04 05:54:54;;;;;;;4.20;2.92;;;;;;;;;;5022747;28;20357;-68
2023/06/04 05:57:40;;;;;;;3.40;2.50;;;;;;;;;;5047876;28;20557;-68
2023/06/04 06:00:25;;;;;;;5.80;3.47;;;;;;;;;;5030696;28;20044;-68
2023/06/04 06:03:10;;;;;;;5.85;2.58;;;;;;;;;;5062772;28;20037;-70
2023/06/04 06:05:58;;;;;;;8.23;2.53;;;;;;;;;;5047554;28;20491;-69
2023/06/04 06:08:43;;;;;;;5.07;2.95;;;;;;;;;;5061275;28;20024;-69
2023/06/04 06:11:28;;;;;;;5.97;2.67;;;;;;;;;;5034612;28;20490;-67
2023/06/04 06:14:13;;;;;;;3.95;2.60;;;;;;;;;;5038590;28;20040;-69
2023/06/04 06:17:00;;;;;;;5.57;2.60;;;;;;;;;;5048293;28;20029;-68
2023/06/04 06:19:45;;;;;;;6.00;2.63;;;;;;;;;;5062003;28;20315;-74
2023/06/04 06:22:31;;;;;;;3.15;2.40;;;;;;;;;;5034649;28;20478;-70
2023/06/04 06:25:16;;;;;;;6.53;2.45;;;;;;;;;;5023247;28;20053;-68
2023/06/04 06:28:01;;;;;;;5.25;2.92;;;;;;;;;;5047769;28;20094;-68
2023/06/04 06:30:47;;;;;;;4.53;2.45;;;;;;;;;;5045584;28;20031;-69
2023/06/04 06:33:32;;;;;;;8.13;2.63;;;;;;;;;;5047326;28;20581;-69
2023/06/04 06:36:18;;;;;;;8.85;2.83;;;;;;;;;;5034556;28;20037;-70
2023/06/04 06:39:03;;;;;;;7.15;2.70;;;;;;;;;;5039301;28;20040;-72
2023/06/04 06:41:49;;;;;;;4.18;2.65;;;;;;;;;;5032446;28;20392;-68
2023/06/04 06:44:34;;;;;;;6.53;2.72;;;;;;;;;;5048652;28;20116;-69
2023/06/04 06:47:19;;;;;;;4.25;2.30;;;;;;;;;;5035519;28;20040;-70
2023/06/04 06:50:05;;;;;;;5.30;2.20;;;;;;;;;;5037809;28;20051;-69
2023/06/04 06:52:50;;;;;;;5.40;2.33;;;;;;;;;;5048027;28;20037;-69
2023/06/04 06:55:35;;;;;;;6.15;2.92;;;;;;;;;;5047726;28;20029;-70
2023/06/04 06:58:21;;;;;;;5.75;2.80;;;;;;;;;;5047772;28;20071;-69
2023/06/04 07:01:06;;;;;;;7.82;2.90;;;;;;;;;;5034477;28;20085;-69
2023/06/04 07:03:52;;;;;;;5.88;2.47;;;;;;;;;;5031586;28;20544;-69
2023/06/04 07:06:37;;;;;;;6.13;2.83;;;;;;;;;;5046806;28;20492;-71
2023/06/04 07:09:22;;;;;;;4.90;2.85;;;;;;;;;;5046921;28;20043;-72
2023/06/04 07:12:07;;;;;;;4.47;2.25;;;;;;;;;;5033806;28;20043;-70
2023/06/04 07:14:52;;;;;;;4.47;2.35;;;;;;;;;;5037180;28;20039;-73
2023/06/04 07:17:38;;;;;;;4.07;2.28;;;;;;;;;;5046752;28;20091;-69
2023/06/04 07:20:23;;;;;;;2.58;1.95;;;;;;;;;;5047134;28;20111;-70
2023/06/04 07:23:08;;;;;;;3.30;2.00;;;;;;;;;;5048267;28;20538;-69
2023/06/04 07:25:53;;;;;;;4.80;2.25;;;;;;;;;;5035848;28;20036;-70
2023/06/04 07:28:39;;;;;;;5.25;1.98;;;;;;;;;;5040097;28;20131;-70
2023/06/04 07:31:24;;;;;;;4.50;3.28;;;;;;;;;;5045805;28;20033;-70
2023/06/04 07:34:09;;;;;;;7.18;2.45;;;;;;;;;;5047216;28;20159;-70
2023/06/04 07:36:54;;;;;;;3.92;2.05;;;;;;;;;;5028459;28;20480;-69
2023/06/04 07:39:40;;;;;;;6.32;2.50;;;;;;;;;;5036914;28;20383;-69
2023/06/04 07:42:25;;;;;;;5.90;2.22;;;;;;;;;;5060718;28;20404;-69
2023/06/04 07:45:10;;;;;;;5.15;2.58;;;;;;;;;;5033337;28;20110;-69
2023/06/04 07:47:56;;;;;;;4.03;2.33;;;;;;;;;;5046958;28;20029;-72
2023/06/04 07:50:41;;;;;;;4.22;2.70;;;;;;;;;;5034989;28;20375;-69
2023/06/04 07:53:26;;;;;;;5.55;2.45;;;;;;;;;;5039327;28;20032;-71
2023/06/04 07:56:12;;;;;;;6.43;2.80;;;;;;;;;;5060404;28;20146;-72
2023/06/04 07:58:57;;;;;;;7.47;2.47;;;;;;;;;;5041341;28;20029;-73
2023/06/04 08:01:42;;;;;;;4.47;2.40;;;;;;;;;;5007296;28;20037;-73
2023/06/04 08:04:27;;;;;;;6.22;2.40;;;;;;;;;;5037674;28;20036;-72
2023/06/04 08:07:13;;;;;;;5.88;3.25;;;;;;;;;;5047445;28;20029;-71
2023/06/04 08:09:58;;;;;;;3.63;2.55;;;;;;;;;;5060938;28;20045;-71
2023/06/04 08:12:43;;;;;;;3.30;2.13;;;;;;;;;;5032964;28;20041;-69
2023/06/04 08:15:28;;;;;;;9.07;2.40;;;;;;;;;;5035205;28;20068;-69
2023/06/04 08:18:14;;;;;;;5.88;2.53;;;;;;;;;;5036567;28;20419;-69
2023/06/04 08:20:59;;;;;;;8.57;2.60;;;;;;;;;;5051080;28;20170;-68
2023/06/04 08:23:44;;;;;;;10.50;2.60;;;;;;;;;;5048863;28;20037;-69
2023/06/04 08:26:30;;;;;;;5.82;2.35;;;;;;;;;;5037047;28;20029;-70
2023/06/04 08:29:15;;;;;;;5.50;2.20;;;;;;;;;;5041690;28;20545;-74
2023/06/04 08:32:02;;;;;;;3.67;2.10;;;;;;;;;;5034569;28;20063;-68
2023/06/04 08:34:47;;;;;;;12.25;2.70;;;;;;;;;;5043216;28;20029;-68
2023/06/04 08:37:33;;;;;;;8.15;2.60;;;;;;;;;;5036633;28;20061;-69
2023/06/04 08:40:18;;;;;;;8.18;2.50;;;;;;;;;;5039399;28;20353;-68
2023/06/04 08:43:04;;;;;;;5.63;2.70;;;;;;;;;;5050373;28;20033;-69
2023/06/04 08:45:50;;;;;;;5.55;2.60;;;;;;;;;;5064389;28;20028;-70
2023/06/04 08:48:37;;;;;;;6.18;2.58;;;;;;;;;;5056694;28;20040;-69
2023/06/04 08:51:22;;;;;;;6.30;2.92;;;;;;;;;;5033791;28;20029;-71
2023/06/04 08:54:08;;;;;;;5.03;2.88;;;;;;;;;;5041877;28;20052;-70
2023/06/04 08:56:55;;;;;;;4.32;2.45;;;;;;;;;;5047507;28;20032;-71
2023/06/04 08:59:40;;;;;;;4.78;2.53;;;;;;;;;;5040459;28;20036;-70
2023/06/04 09:02:27;;;;;;;6.47;2.60;;;;;;;;;;5033354;28;20040;-71
2023/06/04 09:05:19;;;;;;;7.72;3.00;;;;;;;;;;5038248;28;20383;-76
2023/06/04 09:08:05;;;;;;;5.35;2.58;;;;;;;;;;5047984;28;20123;-67
2023/06/04 09:10:52;;;;;;;6.68;2.78;;;;;;;;;;5036068;28;20415;-69
2023/06/04 09:13:38;;;;;;;7.28;3.85;;;;;;;;;;5035273;28;20049;-69
2023/06/04 09:16:23;;;;;;;10.60;4.07;;;;;;;;;;5042620;28;20033;-69
2023/06/04 09:19:09;;;;;;;7.00;4.68;;;;;;;;;;5049569;28;20048;-68
2023/06/04 09:21:55;;;;;;;12.70;7.65;;;;;;;;;;5046686;28;20059;-69
2023/06/04 09:24:41;;;;;;;10.38;6.00;;;;;;;;;;5049283;28;20110;-74
2023/06/04 09:27:28;;;;;;;16.40;10.32;;;;;;;;;;5037118;28;20029;-69
2023/06/04 09:30:13;;;;;;;6.70;3.60;;;;;;;;;;5032381;28;20422;-70
2023/06/04 09:33:08;;;;;;;7.32;3.15;;;;;;;;;;5025284;28;20063;-68
2023/06/04 09:35:58;;;;;;;8.45;4.10;;;;;;;;;;5049076;28;20037;-70
2023/06/04 09:38:43;;;;;;;5.90;2.80;;;;;;;;;;5037104;28;20040;-70
2023/06/04 09:41:29;;;;;;;5.35;2.45;;;;;;;;;;5041764;28;20040;-68
2023/06/04 09:44:14;;;;;;;12.60;3.50;;;;;;;;;;5049240;28;20037;-70
2023/06/04 09:47:00;;;;;;;6.75;2.92;;;;;;;;;;5049092;28;20108;-71
2023/06/04 09:49:46;;;;;;;5.80;3.28;;;;;;;;;;5033827;28;20524;-71
2023/06/04 09:52:32;;;;;;;7.72;3.00;;;;;;;;;;5037905;28;20060;-71
2023/06/04 09:55:19;;;;;;;5.85;2.63;;;;;;;;;;5048877;28;20087;-71
2023/06/04 09:58:05;;;;;;;4.63;2.67;;;;;;;;;;5049011;28;20043;-71
2023/06/04 10:00:50;;;;;;;4.47;2.72;;;;;;;;;;5034790;28;20032;-76
2023/06/04 10:03:36;;;;;;;8.80;3.08;;;;;;;;;;5028261;28;20059;-71
2023/06/04 10:06:22;;;;;;;6.80;3.05;;;;;;;;;;5035323;28;20040;-69
2023/06/04 10:09:08;;;;;;;5.70;3.13;;;;;;;;;;5049100;28;20036;-69
2023/06/04 10:11:56;;;;;;;6.40;3.00;;;;;;;;;;5035032;28;20083;-71
2023/06/04 10:14:45;;;;;;;7.53;3.55;;;;;;;;;;5050578;28;20029;-69
2023/06/04 10:17:32;;;;;;;7.00;3.92;;;;;;;;;;5041385;28;20045;-72
2023/06/04 10:20:20;;;;;;;7.07;3.60;;;;;;;;;;5034825;28;20041;-69
2023/06/04 10:23:06;;;;;;;6.10;3.67;;;;;;;;;;5048647;28;20150;-70
2023/06/04 10:25:54;;;;;;;5.30;2.55;;;;;;;;;;5042825;28;20539;-70
2023/06/04 10:28:40;;;;;;;5.85;3.20;;;;;;;;;;5034315;28;20040;-70
2023/06/04 10:31:25;;;;;;;4.32;2.97;;;;;;;;;;5041435;28;20067;-70
2023/06/04 10:34:11;;;;;;;8.18;3.50;;;;;;;;;;5047616;28;20045;-70
2023/06/04 10:36:57;;;;;;;7.72;3.00;;;;;;;;;;5034321;28;20033;-69
2023/06/04 10:39:50;;;;;;;6.53;3.33;;;;;;;;;;5037214;28;20091;-71
2023/06/04 10:42:40;;;;;;;7.35;3.40;;;;;;;;;;5061621;28;20435;-69
2023/06/04 10:45:29;;;;;;;7.72;3.58;;;;;;;;;;5048205;28;20043;-68
2023/06/04 10:48:14;;;;;;;6.88;3.50;;;;;;;;;;5034269;28;20070;-69
2023/06/04 10:51:00;;;;;;;8.68;4.30;;;;;;;;;;5022595;28;20037;-68
2023/06/04 10:53:45;;;;;;;8.50;5.72;;;;;;;;;;5047984;28;20037;-69
2023/06/04 10:56:32;;;;;;;6.88;3.80;;;;;;;;;;5048111;28;20025;-67
2023/06/04 10:59:17;;;;;;;6.70;3.95;;;;;;;;;;5022649;28;20114;-71
2023/06/04 11:02:06;;;;;;;8.25;3.58;;;;;;;;;;5036374;28;20037;-72
2023/06/04 11:05:18;;;;;;;5.25;2.80;;;;;;;;;;5034690;28;20040;-70
2023/06/04 11:08:05;;;;;;;7.10;3.10;;;;;;;;;;5047440;28;20037;-70
2023/06/04 11:10:50;;;;;;;8.30;3.25;;;;;;;;;;5033935;28;20033;-71
2023/06/04 11:13:35;;;;;;;6.40;3.13;;;;;;;;;;5037947;28;20037;-69
2023/06/04 11:16:21;;;;;;;6.13;3.10;;;;;;;;;;5033234;28;20041;-71
2023/06/04 11:19:06;;;;;;;4.82;3.08;;;;;;;;;;5047289;28;20602;-70
2023/06/04 11:21:52;;;;;;;3.08;2.35;;;;;;;;;;5029331;28;20105;-72
2023/06/04 11:24:37;;;;;;;8.65;4.70;;;;;;;;;;5036853;28;20139;-71
2023/06/04 11:27:23;;;;;;;8.50;4.50;;;;;;;;;;5047247;28;20071;-73
2023/06/04 11:30:08;;;;;;;5.65;3.47;;;;;;;;;;5045424;28;20086;-72
2023/06/04 11:33:01;;;;;;;9.38;3.40;;;;;;;;;;5061097;28;20468;-72
2023/06/04 11:35:46;;;;;;;6.28;3.28;;;;;;;;;;5035204;28;20083;-69
2023/06/04 11:38:31;;;;;;;7.38;3.88;;;;;;;;;;5047674;28;20033;-69
2023/06/04 11:41:16;;;;;;;5.57;3.05;;;;;;;;;;5032848;28;20037;-69
2023/06/04 11:44:05;;;;;;;6.03;3.60;;;;;;;;;;5044984;28;20124;-70
2023/06/04 11:46:52;;;;;;;12.43;4.68;;;;;;;;;;5031839;28;20112;-69
2023/06/04 11:49:37;;;;;;;7.55;3.30;;;;;;;;;;5025376;28;20387;-71
2023/06/04 11:52:23;;;;;;;5.65;2.95;;;;;;;;;;5036028;28;20037;-72
2023/06/04 11:55:09;;;;;;;4.93;3.08;;;;;;;;;;5065476;28;20418;-71
2023/06/04 11:57:54;;;;;;;6.03;3.67;;;;;;;;;;5037467;28;20373;-72
2023/06/04 12:00:40;;;;;;;6.82;3.42;;;;;;;;;;5035096;28;20056;-73
2023/06/04 12:03:37;;;;;;;5.05;3.10;;;;;;;;;;5037659;28;20043;-71
2023/06/04 12:06:22;;;;;;;8.35;3.92;;;;;;;;;;5051348;28;20033;-74
2023/06/04 12:09:07;;;;;;;5.95;3.50;;;;;;;;;;5037627;28;20075;-69
2023/06/04 12:12:02;;;;;;;4.95;3.17;;;;;;;;;;5040004;28;20107;-68
2023/06/04 12:14:55;;;;;;;9.70;3.55;;;;;;;;;;5048653;28;20432;-68
2023/06/04 12:17:53;;;;;;;6.65;3.20;;;;;;;;;;5047389;28;20028;-71
2023/06/04 12:20:39;;;;;;;9.32;4.00;;;;;;;;;;5022651;28;20528;-68
2023/06/04 12:23:26;;;;;;;7.07;3.35;;;;;;;;;;5041539;28;20040;-69
2023/06/04 12:26:28;;;;;;;5.85;3.25;;;;;;;;;;5050126;28;20033;-69
2023/06/04 12:29:14;;;;;;;6.97;5.40;;;;;;;;;;5063772;28;20067;-66
2023/06/04 12:32:04;;;;;;;4.68;3.03;;;;;;;;;;5036505;28;20032;-67
2023/06/04 12:34:50;;;;;;;8.15;4.63;;;;;;;;;;5043448;28;20036;-68
2023/06/04 12:37:35;;;;;;;13.55;4.28;;;;;;;;;;5050713;28;20075;-67
2023/06/04 12:40:20;;;;;;;6.28;3.80;;;;;;;;;;5050247;28;20480;-69
2023/06/04 12:43:06;;;;;;;9.88;5.07;;;;;;;;;;5037264;28;20051;-70
2023/06/04 12:45:52;;;;;;;6.32;3.53;;;;;;;;;;5041226;28;20104;-71
2023/06/04 12:48:37;;;;;;;6.32;3.92;;;;;;;;;;5050711;28;20041;-71
2023/06/04 12:51:22;;;;;;;5.75;3.45;;;;;;;;;;5050444;28;20094;-69
2023/06/04 12:54:09;;;;;;;7.00;3.67;;;;;;;;;;5022601;28;20036;-70
2023/06/04 12:56:56;;;;;;;7.20;3.70;;;;;;;;;;5039506;28;20029;-71
2023/06/04 12:59:41;;;;;;;9.38;3.45;;;;;;;;;;5043613;28;20029;-68
2023/06/04 13:02:26;;;;;;;5.60;3.40;;;;;;;;;;5049250;28;20039;-70
2023/06/04 13:05:12;;;;;;;5.38;3.03;;;;;;;;;;5049516;28;20392;-71
2023/06/04 13:07:57;;;;;;;6.65;3.28;;;;;;;;;;5037278;28;20025;-74
2023/06/04 13:10:42;;;;;;;6.72;4.07;;;;;;;;;;5029994;28;20029;-74
2023/06/04 13:13:28;;;;;;;6.95;3.70;;;;;;;;;;5049834;28;20028;-74
2023/06/04 13:16:13;;;;;;;5.68;3.58;;;;;;;;;;5028466;28;20040;-75
2023/06/04 13:18:59;;;;;;;6.03;3.70;;;;;;;;;;5035856;28;20498;-73
2023/06/04 13:21:44;;;;;;;8.40;3.63;;;;;;;;;;5039528;28;20128;-74
2023/06/04 13:24:29;;;;;;;5.95;4.07;;;;;;;;;;5049737;28;20127;-67
2023/06/04 13:27:15;;;;;;;4.90;3.50;;;;;;;;;;5049529;28;20380;-70
2023/06/04 13:30:00;;;;;;;6.03;3.55;;;;;;;;;;5048047;28;20024;-68
2023/06/04 13:32:45;;;;;;;12.95;7.28;;;;;;;;;;5021681;28;20037;-71
2023/06/04 13:35:31;;;;;;;7.57;4.00;;;;;;;;;;5041748;28;20037;-69
2023/06/04 13:38:16;;;;;;;5.63;3.25;;;;;;;;;;5049556;28;20272;-67
2023/06/04 13:41:01;;;;;;;6.97;3.63;;;;;;;;;;5049524;28;20109;-69
2023/06/04 13:43:46;;;;;;;6.25;3.30;;;;;;;;;;5049330;28;20128;-70
2023/06/04 13:46:32;;;;;;;6.57;4.05;;;;;;;;;;5039574;28;20112;-70
2023/06/04 13:49:17;;;;;;;6.10;3.38;;;;;;;;;;5049333;28;20104;-72
2023/06/04 13:52:02;;;;;;;5.82;3.55;;;;;;;;;;5049263;28;20514;-71
2023/06/04 13:54:47;;;;;;;5.68;3.47;;;;;;;;;;5050690;28;20037;-72
2023/06/04 13:57:33;;;;;;;6.60;3.97;;;;;;;;;;5037051;28;20468;-71
2023/06/04 14:00:18;;;;;;;6.47;3.35;;;;;;;;;;5033174;28;20307;-68
2023/06/04 14:03:03;;;;;;;5.93;3.45;;;;;;;;;;5048838;28;20028;-67
2023/06/04 14:05:48;;;;;;;5.28;3.00;;;;;;;;;;5048935;28;20032;-69
2023/06/04 14:08:34;;;;;;;6.38;3.33;;;;;;;;;;5035131;28;20064;-71
2023/06/04 14:11:20;;;;;;;8.98;3.95;;;;;;;;;;5028840;28;20033;-69
2023/06/04 14:14:06;;;;;;;8.02;3.53;;;;;;;;;;5036651;28;20396;-69
2023/06/04 14:16:54;;;;;;;5.57;3.33;;;;;;;;;;5062192;28;20032;-68
2023/06/04 14:19:40;;;;;;;5.80;3.60;;;;;;;;;;5020775;28;20079;-67
2023/06/04 14:22:25;;;;;;;5.90;2.85;;;;;;;;;;5037918;28;20060;-68
2023/06/04 14:25:10;;;;;;;6.57;3.13;;;;;;;;;;5047858;28;20041;-67
2023/06/04 14:27:56;;;;;;;5.40;3.47;;;;;;;;;;5047823;28;20079;-71
2023/06/04 14:30:41;;;;;;;5.88;3.38;;;;;;;;;;5045648;28;20086;-69
2023/06/04 14:33:26;;;;;;;5.25;3.67;;;;;;;;;;5035348;28;20419;-70
2023/06/04 14:36:11;;;;;;;6.40;3.42;;;;;;;;;;5039578;28;20036;-75
2023/06/04 14:38:56;;;;;;;5.25;2.80;;;;;;;;;;5048058;28;20040;-71
2023/06/04 14:41:42;;;;;;;4.60;3.17;;;;;;;;;;5047140;28;20076;-72
2023/06/04 14:44:27;;;;;;;8.43;3.55;;;;;;;;;;5033841;28;20075;-71
2023/06/04 14:47:12;;;;;;;5.05;3.15;;;;;;;;;;5036675;28;20043;-70
2023/06/04 14:49:57;;;;;;;5.20;3.25;;;;;;;;;;5046945;28;20483;-71
2023/06/04 14:52:43;;;;;;;6.07;3.25;;;;;;;;;;5046757;28;20076;-71
2023/06/04 14:55:28;;;;;;;5.85;3.97;;;;;;;;;;5048086;28;20029;-70
2023/06/04 14:58:13;;;;;;;7.75;3.53;;;;;;;;;;5034811;28;20052;-70
2023/06/04 15:00:59;;;;;;;6.57;3.47;;;;;;;;;;5035401;28;20037;-69
2023/06/04 15:03:44;;;;;;;6.70;3.40;;;;;;;;;;5039081;28;20045;-70
2023/06/04 15:06:29;;;;;;;6.75;3.50;;;;;;;;;;5045608;28;20059;-67
2023/06/04 15:09:15;;;;;;;5.43;3.17;;;;;;;;;;5028352;28;20036;-70
2023/06/04 15:12:00;;;;;;;6.00;2.90;;;;;;;;;;5037665;28;20028;-73
2023/06/04 15:14:45;;;;;;;5.63;3.00;;;;;;;;;;5047839;28;20064;-68
2023/06/04 15:17:30;;;;;;;5.75;3.22;;;;;;;;;;5045349;28;20406;-68
2023/06/04 15:20:16;;;;;;;6.50;3.20;;;;;;;;;;5058882;28;20512;-67
2023/06/04 15:23:01;;;;;;;7.18;3.70;;;;;;;;;;5033575;28;20910;-69
2023/06/04 15:25:46;;;;;;;6.75;2.80;;;;;;;;;;5037158;28;20128;-71
2023/06/04 15:28:31;;;;;;;3.95;2.90;;;;;;;;;;5045229;28;20128;-71
2023/06/04 15:31:17;;;;;;;4.93;3.22;;;;;;;;;;5043320;28;20523;-72
2023/06/04 15:34:02;;;;;;;5.32;3.63;;;;;;;;;;5033340;28;20124;-71
2023/06/04 15:36:47;;;;;;;6.70;3.25;;;;;;;;;;5037290;28;20379;-71
2023/06/04 15:39:32;;;;;;;7.03;3.88;;;;;;;;;;5047130;28;20063;-71
2023/06/04 15:42:17;;;;;;;4.38;2.97;;;;;;;;;;5046219;28;20071;-71
2023/06/04 15:45:03;;;;;;;5.53;3.47;;;;;;;;;;5047014;28;20464;-71
2023/06/04 15:47:48;;;;;;;4.57;2.90;;;;;;;;;;5034920;28;20029;-72
2023/06/04 15:50:33;;;;;;;6.07;3.40;;;;;;;;;;5038992;28;20033;-71
2023/06/04 15:53:19;;;;;;;7.53;3.47;;;;;;;;;;5047132;28;20033;-67
2023/06/04 15:56:04;;;;;;;5.70;3.22;;;;;;;;;;5047064;28;20044;-68
2023/06/04 15:58:49;;;;;;;6.97;4.60;;;;;;;;;;5028421;28;20479;-67
2023/06/04 16:01:35;;;;;;;5.50;3.55;;;;;;;;;;5024801;28;20487;-68
2023/06/04 16:04:20;;;;;;;8.00;3.72;;;;;;;;;;5035308;28;20040;-70
2023/06/04 16:07:05;;;;;;;6.05;3.72;;;;;;;;;;5047290;28;20091;-68
2023/06/04 16:09:50;;;;;;;7.32;3.72;;;;;;;;;;5046603;28;20396;-71
2023/06/04 16:12:36;;;;;;;5.55;3.83;;;;;;;;;;5034764;28;20356;-68
2023/06/04 16:15:21;;;;;;;7.60;4.68;;;;;;;;;;5046415;28;20153;-69
2023/06/04 16:18:06;;;;;;;6.30;3.33;;;;;;;;;;5045631;28;20476;-70
2023/06/04 16:20:51;;;;;;;4.53;2.85;;;;;;;;;;5035073;28;20029;-69
2023/06/04 16:23:36;;;;;;;9.73;3.85;;;;;;;;;;5019140;28;20045;-68
2023/06/04 16:26:22;;;;;;;6.63;3.22;;;;;;;;;;5035507;28;20044;-69
2023/06/04 16:29:07;;;;;;;7.82;4.60;;;;;;;;;;5046713;28;20484;-71
2023/06/04 16:31:52;;;;;;;9.25;4.68;;;;;;;;;;5058765;28;20044;-73